Terminal Aerodrome Forecast
Issued by NWS

Current Version | Previous Version | Text Only | Print | Product List | Glossary On
Versions: 1 2 3 4 5 6 7 8 9 10 11 12 13
000
FTUS45 KVEF 181728
TAFEED
TAF
KEED 181728Z 1818/1918 VRB04KT P6SM FEW250
     FM182100 19007KT P6SM SCT250
     FM190300 23008KT P6SM SCT080 BKN150
     FM190800 27008KT P6SM -SHRA SCT050 OVC080=

USA.gov is the U.S. government's official web portal to all federal, state and local government web resources and services.